Time;durP1;ratioP1;P1;durP2;ratioP2;P2;SDS_P1;SDS_P2;PMS_P1;PMS_P2;Temp;Humidity;BMP_temperature;BMP_pressure;BME280_temperature;BME280_humidity;BME280_pressure;Samples;Min_cycle;Max_cycle;Signal;HPM_P1;HPM_P2
2023/08/20 00:02:05;;;;;;;;;68.00;55.00;;;;;26.04;62.61;101164.70;109968;1266;20285;-77
2023/08/20 00:04:31;;;;;;;;;65.50;52.00;;;;;25.98;62.77;101162.93;110000;1260;19062;-77
2023/08/20 00:06:57;;;;;;;;;65.50;53.50;;;;;25.92;63.08;101161.92;110015;1250;23653;-77
2023/08/20 00:09:26;;;;;;;;;61.67;50.00;;;;;25.98;62.83;101162.71;110044;1251;21759;-78
2023/08/20 00:11:52;;;;;;;;;67.50;53.50;;;;;25.99;62.88;101159.23;110073;1251;23493;-77
2023/08/20 00:14:18;;;;;;;;;64.50;51.50;;;;;26.02;62.79;101157.69;110060;1265;22958;-77
2023/08/20 00:16:44;;;;;;;;;65.00;52.00;;;;;26.01;62.55;101161.33;109989;1251;23263;-76
2023/08/20 00:19:11;;;;;;;;;67.00;52.00;;;;;25.97;62.51;101166.58;109955;1265;22431;-77
2023/08/20 00:21:37;;;;;;;;;64.00;51.00;;;;;25.93;62.50;101165.81;110028;1251;23054;-78
2023/08/20 00:24:03;;;;;;;;;63.00;51.00;;;;;25.93;62.68;101164.76;109962;1251;22687;-77
2023/08/20 00:26:29;;;;;;;;;85.50;66.00;;;;;25.89;62.61;101166.08;110030;1266;18992;-77
2023/08/20 00:28:55;;;;;;;;;74.00;57.00;;;;;25.88;62.71;101163.08;110005;1251;20899;-76
2023/08/20 00:31:21;;;;;;;;;68.50;52.50;;;;;25.90;62.55;101161.79;110014;1266;20236;-77
2023/08/20 00:33:47;;;;;;;;;64.00;50.00;;;;;25.90;62.48;101162.34;110066;1250;20189;-76
2023/08/20 00:36:13;;;;;;;;;65.00;53.00;;;;;25.90;62.38;101163.86;110074;1251;20999;-77
2023/08/20 00:38:39;;;;;;;;;66.00;54.50;;;;;25.88;62.39;101161.05;110080;1251;23524;-77
2023/08/20 00:41:05;;;;;;;;;68.50;54.50;;;;;25.83;62.45;101158.86;109929;1253;23007;-77
2023/08/20 00:43:31;;;;;;;;;66.00;54.50;;;;;25.80;62.21;101156.25;110050;1265;23541;-78
2023/08/20 00:45:57;;;;;;;;;76.00;59.50;;;;;25.82;62.39;101158.70;109962;1265;22622;-79
2023/08/20 00:48:23;;;;;;;;;;;;;;;25.78;62.15;101156.12;110008;1250;22904;-79
2023/08/20 00:50:49;;;;;;;;;67.00;55.50;;;;;25.75;61.98;101158.45;109975;1266;21966;-78
2023/08/20 00:53:15;;;;;;;;;70.00;55.00;;;;;25.76;61.87;101155.76;110038;1260;21505;-78
2023/08/20 00:55:41;;;;;;;;;70.00;56.00;;;;;25.77;61.83;101153.28;110002;1250;19991;-76
2023/08/20 00:58:08;;;;;;;;;71.00;55.67;;;;;25.74;61.65;101157.65;109982;1266;23653;-77
2023/08/20 01:00:34;;;;;;;;;71.00;56.00;;;;;25.73;61.69;101158.16;109951;1266;21489;-77
2023/08/20 01:03:00;;;;;;;;;71.00;54.50;;;;;25.71;61.47;101161.15;109970;1250;19979;-77
2023/08/20 01:05:26;;;;;;;;;68.67;54.00;;;;;25.67;61.92;101159.98;110052;1265;19445;-78
2023/08/20 01:07:52;;;;;;;;;68.00;56.00;;;;;25.67;61.79;101161.52;110054;1251;21495;-77
2023/08/20 01:10:18;;;;;;;;;65.50;54.00;;;;;25.65;61.65;101161.10;110078;1258;19070;-77
2023/08/20 01:12:44;;;;;;;;;75.00;59.00;;;;;25.65;61.82;101160.19;110036;1251;22927;-77
2023/08/20 01:15:13;;;;;;;;;87.00;65.00;;;;;25.67;61.70;101163.62;109969;1259;23313;-77
2023/08/20 01:17:39;;;;;;;;;73.50;58.00;;;;;25.66;61.78;101165.60;109979;1250;19791;-77
2023/08/20 01:20:05;;;;;;;;;73.00;57.00;;;;;25.64;61.48;101166.54;109931;1251;23288;-77
2023/08/20 01:22:32;;;;;;;;;70.50;55.50;;;;;25.65;61.49;101170.77;109955;1265;22277;-77
2023/08/20 01:24:58;;;;;;;;;65.00;53.00;;;;;25.64;61.35;101168.35;109979;1250;22402;-77
2023/08/20 01:27:24;;;;;;;;;67.00;55.00;;;;;25.59;61.25;101175.59;109922;1250;20687;-77
2023/08/20 01:29:50;;;;;;;;;68.50;55.00;;;;;25.57;61.20;101177.48;109967;1250;21576;-77
2023/08/20 01:32:16;;;;;;;;;66.00;53.50;;;;;25.48;61.51;101180.87;109937;1266;20628;-79
2023/08/20 01:34:42;;;;;;;;;65.50;51.50;;;;;25.47;61.48;101173.91;109981;1251;21494;-77
2023/08/20 01:37:08;;;;;;;;;66.50;50.00;;;;;25.46;61.37;101171.56;109973;1251;22610;-77
2023/08/20 01:39:34;;;;;;;;;65.00;51.00;;;;;25.46;61.22;101170.14;109973;1265;22978;-76
2023/08/20 01:42:00;;;;;;;;;62.50;49.50;;;;;25.46;61.17;101171.46;109994;1266;21052;-76
2023/08/20 01:44:26;;;;;;;;;76.00;58.00;;;;;25.43;61.40;101171.55;110023;1251;23231;-76
2023/08/20 01:46:52;;;;;;;;;69.00;55.00;;;;;25.44;61.18;101171.69;109991;1266;23521;-77
2023/08/20 01:49:18;;;;;;;;;64.00;50.00;;;;;25.46;60.81;101176.39;110028;1266;19433;-78
2023/08/20 01:51:44;;;;;;;;;63.00;52.00;;;;;25.41;60.91;101173.98;110007;1251;21533;-78
2023/08/20 01:54:10;;;;;;;;;63.00;52.00;;;;;25.40;61.12;101176.57;109989;1258;20208;-78
2023/08/20 01:56:36;;;;;;;;;62.00;49.00;;;;;25.37;60.90;101175.67;109999;1266;21653;-78
2023/08/20 01:59:02;;;;;;;;;62.33;50.00;;;;;25.41;60.79;101179.14;110010;1250;23164;-78
2023/08/20 02:01:28;;;;;;;;;61.00;50.00;;;;;25.40;60.75;101173.93;109999;1266;20698;-78
2023/08/20 02:03:54;;;;;;;;;59.00;49.00;;;;;25.42;60.78;101174.02;109972;1250;21936;-77
2023/08/20 02:06:20;;;;;;;;;53.50;45.00;;;;;25.39;60.65;101174.55;110010;1252;21781;-79
2023/08/20 02:08:47;;;;;;;;;62.00;49.50;;;;;25.39;60.71;101173.52;110018;1266;21950;-77
2023/08/20 02:11:13;;;;;;;;;77.00;60.00;;;;;25.33;60.68;101179.17;110015;1266;21075;-76
2023/08/20 02:13:39;;;;;;;;;80.00;63.00;;;;;25.33;60.86;101180.88;109976;1251;23784;-78
2023/08/20 02:16:06;;;;;;;;;65.00;53.50;;;;;25.35;60.82;101183.05;109956;1266;21928;-77
2023/08/20 02:18:32;;;;;;;;;62.50;48.00;;;;;25.36;60.48;101181.33;109989;1260;23470;-77
2023/08/20 02:20:58;;;;;;;;;66.00;51.00;;;;;25.30;60.63;101179.20;110016;1267;21612;-77
2023/08/20 02:23:24;;;;;;;;;64.00;50.00;;;;;25.25;60.91;101177.45;109936;1250;21608;-77
2023/08/20 02:25:50;;;;;;;;;63.00;51.00;;;;;25.30;60.77;101179.91;109965;1260;23023;-77
2023/08/20 02:28:16;;;;;;;;;66.00;49.00;;;;;25.25;61.06;101178.64;109998;1250;21718;-77
2023/08/20 02:30:42;;;;;;;;;75.67;58.00;;;;;25.18;61.17;101176.53;109940;1266;20259;-76
2023/08/20 02:33:08;;;;;;;;;70.00;56.00;;;;;25.24;61.31;101178.88;110022;1251;20889;-77
2023/08/20 02:35:34;;;;;;;;;71.50;55.00;;;;;25.21;61.47;101182.70;109994;1266;20273;-77
2023/08/20 02:38:01;;;;;;;;;66.00;54.00;;;;;25.19;61.73;101184.64;109967;1265;19135;-77
2023/08/20 02:40:27;;;;;;;;;67.00;53.00;;;;;25.11;62.16;101186.35;109989;1259;22495;-77
2023/08/20 02:42:53;;;;;;;;;68.00;54.00;;;;;25.15;61.99;101186.32;109956;1259;20165;-76
2023/08/20 02:45:19;;;;;;;;;64.00;52.00;;;;;25.10;61.96;101190.81;109953;1250;20045;-77
2023/08/20 02:47:45;;;;;;;;;62.00;52.00;;;;;25.08;62.46;101188.69;109968;1260;19553;-77
2023/08/20 02:50:11;;;;;;;;;64.00;51.00;;;;;25.06;62.35;101187.77;109995;1251;21603;-77
2023/08/20 02:52:37;;;;;;;;;69.00;54.00;;;;;25.08;62.26;101184.30;109995;1251;20195;-77
2023/08/20 02:55:04;;;;;;;;;;;;;;;25.07;61.99;101182.73;109983;1266;19452;-77
2023/08/20 02:57:30;;;;;;;;;70.00;55.00;;;;;25.06;62.19;101180.98;110000;1253;23745;-77
2023/08/20 02:59:56;;;;;;;;;66.00;54.00;;;;;25.03;62.34;101185.73;109961;1251;19395;-77
2023/08/20 03:02:22;;;;;;;;;64.00;52.00;;;;;25.00;62.22;101183.52;110003;1260;22405;-78
2023/08/20 03:04:48;;;;;;;;;64.00;51.50;;;;;24.92;62.74;101185.58;110009;1251;22635;-76
2023/08/20 03:07:14;;;;;;;;;66.00;52.00;;;;;24.91;62.93;101184.49;109985;1250;20094;-77
2023/08/20 03:09:40;;;;;;;;;68.00;56.00;;;;;24.86;62.89;101183.70;109928;1250;23292;-77
2023/08/20 03:12:06;;;;;;;;;63.00;50.00;;;;;24.90;62.97;101187.45;109977;1250;22801;-77
2023/08/20 03:14:32;;;;;;;;;69.50;52.00;;;;;24.88;63.12;101186.05;109941;1250;18955;-77
2023/08/20 03:16:59;;;;;;;;;65.00;51.00;;;;;24.80;63.03;101185.23;110004;1250;21018;-77
2023/08/20 03:19:25;;;;;;;;;66.00;53.50;;;;;24.71;63.36;101182.58;109970;1251;21676;-77
2023/08/20 03:21:51;;;;;;;;;63.00;51.50;;;;;24.74;63.26;101182.93;109978;1266;23730;-77
2023/08/20 03:24:17;;;;;;;;;71.00;55.00;;;;;24.77;63.22;101178.86;109983;1265;22409;-77
2023/08/20 03:26:43;;;;;;;;;76.50;60.00;;;;;24.80;62.84;101182.67;109979;1251;21637;-77
2023/08/20 03:29:09;;;;;;;;;71.00;56.00;;;;;24.82;62.85;101182.76;110024;1250;21952;-77
2023/08/20 03:31:35;;;;;;;;;65.00;54.00;;;;;24.82;62.69;101185.71;109992;1265;20773;-77
2023/08/20 03:34:01;;;;;;;;;68.00;54.00;;;;;24.81;62.47;101185.83;110022;1265;21668;-77
2023/08/20 03:36:27;;;;;;;;;;;;;;;24.83;62.59;101187.30;110074;1251;19144;-77
2023/08/20 03:38:53;;;;;;;;;72.50;56.00;;;;;24.79;62.68;101192.80;110038;1266;23353;-77
2023/08/20 03:41:19;;;;;;;;;69.00;53.50;;;;;24.81;62.40;101189.73;109964;1266;23054;-77
2023/08/20 03:43:45;;;;;;;;;70.00;55.00;;;;;24.80;62.45;101194.83;109933;1260;23151;-77
2023/08/20 03:46:11;;;;;;;;;68.00;52.50;;;;;24.78;62.46;101197.42;109922;1265;19474;-78
2023/08/20 03:48:37;;;;;;;;;69.50;54.00;;;;;24.71;62.41;101203.61;109962;1265;20188;-77
2023/08/20 03:51:03;;;;;;;;;67.00;53.00;;;;;24.66;62.37;101204.96;109988;1266;19984;-77
2023/08/20 03:53:29;;;;;;;;;73.00;58.00;;;;;24.62;62.10;101205.33;110024;1266;24011;-77
2023/08/20 03:55:55;;;;;;;;;72.00;55.00;;;;;24.61;62.39;101203.86;110009;1260;20304;-77
2023/08/20 03:58:21;;;;;;;;;80.00;59.00;;;;;24.64;62.27;101199.28;109954;1258;18964;-77
2023/08/20 04:00:47;;;;;;;;;70.33;53.33;;;;;24.64;62.57;101199.34;109998;1265;19466;-77
2023/08/20 04:03:14;;;;;;;;;74.00;57.00;;;;;24.61;62.69;101197.02;110020;1260;21387;-79
2023/08/20 04:05:40;;;;;;;;;68.00;54.00;;;;;24.57;62.70;101198.13;110048;1251;20021;-76
2023/08/20 04:08:06;;;;;;;;;70.50;56.00;;;;;24.61;62.57;101199.63;109969;1260;21010;-77
2023/08/20 04:10:32;;;;;;;;;73.00;56.50;;;;;24.57;62.88;101202.35;109942;1265;20275;-77
2023/08/20 04:12:58;;;;;;;;;75.00;57.50;;;;;24.55;62.76;101208.55;109973;1250;20001;-77
2023/08/20 04:15:24;;;;;;;;;75.00;59.00;;;;;24.53;62.90;101210.98;110004;1265;19450;-77
2023/08/20 04:17:50;;;;;;;;;72.00;55.50;;;;;24.53;62.98;101209.21;109965;1265;20099;-77
2023/08/20 04:20:16;;;;;;;;;67.00;53.00;;;;;24.55;62.99;101207.13;109958;1250;20938;-78
2023/08/20 04:22:43;;;;;;;;;70.00;57.00;;;;;24.58;62.96;101211.27;110006;1250;20860;-78
2023/08/20 04:25:09;;;;;;;;;67.00;54.50;;;;;24.55;62.67;101212.05;110046;1259;23179;-78
2023/08/20 04:27:35;;;;;;;;;72.00;57.00;;;;;24.51;62.99;101212.41;110043;1250;21240;-77
2023/08/20 04:30:01;;;;;;;;;72.00;58.00;;;;;24.52;62.89;101213.73;109965;1251;22912;-78
2023/08/20 04:32:27;;;;;;;;;72.33;57.00;;;;;24.53;62.94;101216.78;109944;1250;21421;-77
2023/08/20 04:34:54;;;;;;;;;74.00;55.00;;;;;24.55;63.08;101226.36;109963;1251;19301;-77
2023/08/20 04:37:20;;;;;;;;;72.00;57.00;;;;;24.52;62.87;101229.55;109964;1250;22293;-77
2023/08/20 04:39:46;;;;;;;;;75.00;57.00;;;;;24.56;62.83;101237.14;109947;1251;23525;-77
2023/08/20 04:42:12;;;;;;;;;67.00;54.00;;;;;24.53;63.04;101230.64;109940;1265;19313;-78
2023/08/20 04:44:38;;;;;;;;;71.00;58.00;;;;;24.61;62.86;101228.72;109992;1265;19544;-77
2023/08/20 04:47:04;;;;;;;;;74.00;57.00;;;;;24.59;62.94;101221.30;109994;1251;21731;-77
2023/08/20 04:49:30;;;;;;;;;75.00;57.00;;;;;24.54;63.35;101222.42;109979;1266;20034;-78
2023/08/20 04:51:56;;;;;;;;;72.00;57.00;;;;;24.57;63.44;101226.89;110069;1265;19463;-78
2023/08/20 04:54:22;;;;;;;;;70.00;57.00;;;;;24.63;63.30;101227.89;110021;1265;23150;-78
2023/08/20 04:56:48;;;;;;;;;72.00;56.00;;;;;24.64;63.11;101231.50;110059;1250;23080;-77
2023/08/20 04:59:14;;;;;;;;;68.00;54.00;;;;;24.62;63.30;101236.49;110026;1250;23655;-77
2023/08/20 05:01:40;;;;;;;;;70.00;54.00;;;;;24.62;63.53;101233.43;110019;1265;23400;-77
2023/08/20 05:04:06;;;;;;;;;70.00;55.00;;;;;24.64;63.41;101235.05;110016;1266;19092;-77
2023/08/20 05:06:32;;;;;;;;;70.00;55.00;;;;;24.67;63.47;101233.39;109972;1251;23080;-77
2023/08/20 05:08:58;;;;;;;;;68.00;54.00;;;;;24.66;63.65;101234.71;110001;1250;23537;-78
2023/08/20 05:11:24;;;;;;;;;73.67;58.67;;;;;24.65;63.43;101237.30;110001;1251;23528;-78
2023/08/20 05:13:50;;;;;;;;;73.00;56.00;;;;;24.68;63.44;101239.58;110028;1265;21953;-78
2023/08/20 05:16:16;;;;;;;;;74.00;57.00;;;;;24.77;63.20;101241.16;109998;1265;21679;-77
2023/08/20 05:18:42;;;;;;;;;67.33;54.33;;;;;24.77;63.37;101244.44;110033;1250;23594;-78
2023/08/20 05:21:08;;;;;;;;;69.00;54.00;;;;;24.80;63.07;101250.23;110048;1250;20901;-78
2023/08/20 05:23:34;;;;;;;;;68.50;54.50;;;;;24.81;63.17;101250.00;109974;1265;20272;-78
2023/08/20 05:26:00;;;;;;;;;67.00;53.50;;;;;24.80;63.19;101247.60;110022;1251;21328;-77
2023/08/20 05:28:26;;;;;;;;;68.00;54.00;;;;;24.83;63.07;101246.70;110018;1265;20725;-77
2023/08/20 05:30:52;;;;;;;;;62.00;52.00;;;;;24.85;63.11;101241.98;110049;1251;22746;-78
2023/08/20 05:33:18;;;;;;;;;70.00;55.00;;;;;24.91;63.11;101239.40;110029;1260;19894;-78
2023/08/20 05:35:45;;;;;;;;;71.00;57.00;;;;;24.92;63.21;101240.22;110059;1266;19578;-78
2023/08/20 05:38:11;;;;;;;;;73.00;55.00;;;;;24.96;62.90;101242.94;110065;1250;22649;-77
2023/08/20 05:40:37;;;;;;;;;71.00;56.00;;;;;24.92;63.31;101245.38;109965;1266;20701;-77
2023/08/20 05:43:03;;;;;;;;;72.50;55.00;;;;;25.00;63.00;101242.38;109988;1265;23058;-78
2023/08/20 05:45:29;;;;;;;;;68.50;52.50;;;;;25.00;62.79;101241.55;109984;1266;22840;-77
2023/08/20 05:47:55;;;;;;;;;67.00;53.00;;;;;25.04;62.73;101241.30;109949;1265;20224;-78
2023/08/20 05:50:21;;;;;;;;;66.00;55.00;;;;;25.06;62.56;101244.73;110017;1266;19658;-77
2023/08/20 05:52:48;;;;;;;;;64.50;52.00;;;;;25.14;62.68;101243.84;110042;1266;20075;-77
2023/08/20 05:55:14;;;;;;;;;65.50;53.00;;;;;25.15;62.52;101246.75;110007;1266;19134;-78
2023/08/20 05:57:41;;;;;;;;;67.00;55.00;;;;;25.19;62.71;101247.86;110015;1265;19656;-78
2023/08/20 06:00:07;;;;;;;;;62.50;50.50;;;;;25.23;62.64;101251.88;109984;1251;22719;-78
2023/08/20 06:02:33;;;;;;;;;69.00;53.00;;;;;25.27;62.42;101250.36;110038;1266;19199;-77
2023/08/20 06:04:59;;;;;;;;;62.00;49.00;;;;;25.27;62.82;101252.07;109991;1251;20831;-77
2023/08/20 06:07:25;;;;;;;;;64.50;52.50;;;;;25.26;62.88;101250.92;109999;1250;22919;-78
2023/08/20 06:09:51;;;;;;;;;70.00;54.00;;;;;25.32;62.58;101255.26;109976;1250;20187;-79
2023/08/20 06:12:17;;;;;;;;;64.00;52.00;;;;;25.37;62.71;101254.49;109956;1265;20881;-80
2023/08/20 06:14:43;;;;;;;;;59.00;47.00;;;;;25.45;62.51;101253.70;110013;1250;21578;-79
2023/08/20 06:17:09;;;;;;;;;56.00;46.00;;;;;25.60;62.11;101259.47;109964;1265;19887;-83
2023/08/20 06:19:35;;;;;;;;;55.00;46.50;;;;;25.69;62.17;101261.70;109972;1266;19846;-81
2023/08/20 06:22:02;;;;;;;;;59.00;45.00;;;;;25.73;61.85;101264.52;109967;1265;20265;-80
2023/08/20 06:24:28;;;;;;;;;44.00;38.00;;;;;25.82;61.88;101262.22;109984;1265;21928;-80
2023/08/20 06:26:54;;;;;;;;;43.00;38.50;;;;;25.94;61.22;101268.40;110027;1251;19602;-81
2023/08/20 06:29:22;;;;;;;;;39.50;36.50;;;;;25.97;61.20;101262.16;110019;1265;19985;-83
2023/08/20 06:31:48;;;;;;;;;38.67;35.33;;;;;25.97;61.41;101265.77;110013;1250;21974;-80
2023/08/20 06:34:14;;;;;;;;;37.00;34.00;;;;;25.99;61.30;101265.36;110008;1251;22341;-81
2023/08/20 06:36:40;;;;;;;;;34.00;28.50;;;;;26.05;61.06;101265.04;110020;1266;22746;-80
2023/08/20 06:39:06;;;;;;;;;33.00;29.50;;;;;26.16;60.78;101264.30;110015;1266;20121;-80
2023/08/20 06:41:32;;;;;;;;;30.00;28.00;;;;;26.19;60.75;101263.65;110072;1265;21039;-79
2023/08/20 06:43:58;;;;;;;;;25.67;22.33;;;;;26.23;60.46;101264.27;110052;1251;21504;-78
2023/08/20 06:46:24;;;;;;;;;26.67;25.00;;;;;26.29;60.50;101264.08;110022;1251;20012;-78
2023/08/20 06:48:50;;;;;;;;;22.00;22.00;;;;;26.32;60.36;101265.76;110007;1266;20661;-78
2023/08/20 06:51:16;;;;;;;;;23.50;23.50;;;;;26.39;60.07;101270.34;110038;1250;21594;-77
2023/08/20 06:53:42;;;;;;;;;23.00;22.00;;;;;26.42;60.08;101271.29;110008;1266;19080;-78
2023/08/20 06:56:08;;;;;;;;;22.50;21.50;;;;;26.45;60.04;101273.50;110001;1251;20835;-79
2023/08/20 06:58:34;;;;;;;;;19.00;18.00;;;;;26.47;59.96;101273.42;109994;1250;23263;-79
2023/08/20 07:01:07;;;;;;;;;22.00;19.00;;;;;26.51;59.91;101279.20;109986;1251;19965;-78
2023/08/20 07:03:33;;;;;;;;;22.00;18.00;;;;;26.53;59.68;101280.27;109979;1266;21123;-82
2023/08/20 07:05:59;;;;;;;;;22.00;22.00;;;;;26.54;59.60;101274.42;109996;1265;20129;-80
2023/08/20 07:08:25;;;;;;;;;18.00;18.00;;;;;26.56;59.64;101275.00;109995;1260;20142;-77
2023/08/20 07:10:51;;;;;;;;;15.00;15.00;;;;;26.59;59.49;101279.63;109970;1259;20875;-77
2023/08/20 07:13:17;;;;;;;;;18.00;18.00;;;;;26.60;59.43;101280.88;109936;1251;21542;-79
2023/08/20 07:15:43;;;;;;;;;19.00;18.00;;;;;26.63;59.50;101284.84;109956;1251;20509;-76
2023/08/20 07:18:12;;;;;;;;;19.00;17.00;;;;;26.61;59.55;101284.38;109946;1265;19448;-78
2023/08/20 07:20:38;;;;;;;;;14.00;14.00;;;;;26.63;59.31;101286.98;109982;1251;21655;-77
2023/08/20 07:23:05;;;;;;;;;15.50;14.50;;;;;26.65;59.33;101287.89;109972;1251;20022;-78
2023/08/20 07:25:31;;;;;;;;;17.00;14.00;;;;;26.68;58.97;101291.14;109972;1265;19627;-78
2023/08/20 07:27:59;;;;;;;;;14.67;13.67;;;;;26.70;59.15;101289.69;110031;1251;22572;-78
2023/08/20 07:30:25;;;;;;;;;18.00;14.00;;;;;26.72;58.95;101289.20;109861;1265;196678;-77
2023/08/20 07:32:51;;;;;;;;;12.00;12.00;;;;;26.74;58.97;101285.39;110024;1251;22238;-77
2023/08/20 07:35:17;;;;;;;;;13.00;13.00;;;;;26.76;58.98;101284.65;110044;1265;22957;-77
2023/08/20 07:37:43;;;;;;;;;14.00;14.00;;;;;26.76;58.71;101285.14;109996;1265;19211;-78
2023/08/20 07:40:09;;;;;;;;;11.50;11.00;;;;;26.78;58.77;101286.10;110000;1254;19013;-78
2023/08/20 07:42:36;;;;;;;;;13.00;12.00;;;;;26.79;58.87;101286.23;109983;1250;21690;-78
2023/08/20 07:45:02;;;;;;;;;12.50;12.00;;;;;26.80;58.77;101288.55;109966;1251;23437;-78
2023/08/20 07:47:29;;;;;;;;;11.00;11.00;;;;;26.81;58.88;101288.21;109961;1266;19454;-78
2023/08/20 07:49:55;;;;;;;;;12.00;11.00;;;;;26.82;58.88;101288.14;109999;1251;23604;-76
2023/08/20 07:52:21;;;;;;;;;9.00;9.00;;;;;26.83;58.65;101286.41;109984;1251;21355;-77
2023/08/20 07:54:48;;;;;;;;;10.00;10.00;;;;;26.84;58.61;101282.98;110028;1250;22510;-80
2023/08/20 07:57:14;;;;;;;;;10.00;10.00;;;;;26.85;58.52;101275.60;110025;1251;21950;-78
2023/08/20 07:59:40;;;;;;;;;10.00;9.00;;;;;26.86;58.70;101274.21;110035;1259;21069;-77
2023/08/20 08:02:06;;;;;;;;;9.50;9.00;;;;;26.87;58.61;101271.34;110039;1266;23560;-82
2023/08/20 08:04:32;;;;;;;;;8.00;8.00;;;;;26.88;58.65;101265.39;110018;1251;21487;-76
2023/08/20 08:06:58;;;;;;;;;9.00;8.00;;;;;26.90;58.60;101262.55;110014;1250;19684;-78
2023/08/20 08:09:25;;;;;;;;;6.00;6.00;;;;;26.89;58.64;101265.21;109983;1251;22009;-82
2023/08/20 08:11:51;;;;;;;;;9.00;7.50;;;;;26.78;59.32;101266.25;109994;1253;20903;-78
2023/08/20 08:14:17;;;;;;;;;9.00;8.50;;;;;26.75;59.48;101268.05;109942;1266;20088;-77
2023/08/20 08:16:43;;;;;;;;;7.33;7.00;;;;;26.80;59.43;101265.89;109969;1265;19685;-76
2023/08/20 08:19:10;;;;;;;;;8.50;7.50;;;;;26.77;59.87;101263.25;109972;1251;21495;-77
2023/08/20 08:21:36;;;;;;;;;7.00;7.00;;;;;26.78;60.06;101267.73;109985;1266;19173;-77
2023/08/20 08:24:02;;;;;;;;;7.00;7.00;;;;;26.76;59.91;101263.81;109999;1265;19547;-80
2023/08/20 08:26:28;;;;;;;;;8.00;6.00;;;;;26.79;60.09;101264.54;110037;1265;20154;-78
2023/08/20 08:28:54;;;;;;;;;7.00;6.50;;;;;26.79;60.31;101269.14;110091;1265;19251;-77
2023/08/20 08:31:20;;;;;;;;;9.00;8.00;;;;;26.85;60.26;101266.20;110055;1265;23393;-78
2023/08/20 08:33:47;;;;;;;;;8.00;8.00;;;;;26.91;60.08;101265.94;109993;1250;21542;-76
2023/08/20 08:36:15;;;;;;;;;4.00;4.00;;;;;26.93;60.22;101260.14;110021;1251;20811;-77
2023/08/20 08:38:41;;;;;;;;;7.00;7.00;;;;;26.96;60.51;101261.64;109996;1260;20784;-78
2023/08/20 08:41:07;;;;;;;;;4.00;4.00;;;;;26.98;60.54;101255.73;109999;1251;21772;-78
2023/08/20 08:43:33;;;;;;;;;7.00;6.00;;;;;26.99;60.66;101256.83;109985;1251;19360;-78
2023/08/20 08:45:59;;;;;;;;;6.00;6.00;;;;;26.95;60.80;101256.59;110010;1250;20784;-76
2023/08/20 08:48:26;;;;;;;;;6.33;6.33;;;;;27.00;60.72;101264.52;110074;1259;22823;-76
2023/08/20 08:50:52;;;;;;;;;5.00;5.00;;;;;27.02;60.51;101264.20;110043;1265;19567;-77
2023/08/20 08:53:18;;;;;;;;;4.00;4.00;;;;;26.96;60.78;101263.99;110051;1259;21102;-80
2023/08/20 08:55:44;;;;;;;;;4.00;4.00;;;;;26.89;60.95;101265.80;110051;1260;21318;-78
2023/08/20 08:58:10;;;;;;;;;6.00;4.00;;;;;26.88;61.14;101262.36;109976;1265;19575;-76
2023/08/20 09:00:37;;;;;;;;;6.00;4.00;;;;;26.87;60.82;101265.35;109983;1265;19750;-77
2023/08/20 09:03:03;;;;;;;;;3.00;3.00;;;;;26.79;61.42;101268.44;109990;1260;23598;-77
2023/08/20 09:05:29;;;;;;;;;4.00;4.00;;;;;26.84;61.55;101270.29;110019;1265;19197;-77
2023/08/20 09:07:55;;;;;;;;;4.00;4.00;;;;;26.89;61.26;101269.39;110002;1251;21082;-81
2023/08/20 09:10:21;;;;;;;;;4.00;4.00;;;;;26.86;61.51;101270.80;110017;1265;20163;-77
2023/08/20 09:12:47;;;;;;;;;3.00;3.00;;;;;26.81;61.75;101273.14;110033;1250;21758;-79
2023/08/20 09:15:13;;;;;;;;;6.00;6.00;;;;;26.81;61.56;101269.13;109984;1250;23474;-79
2023/08/20 09:17:39;;;;;;;;;4.00;4.00;;;;;26.84;61.59;101269.96;109981;1265;23231;-78
2023/08/20 09:20:05;;;;;;;;;4.00;4.00;;;;;26.85;61.77;101275.34;110006;1265;23055;-76
2023/08/20 09:22:31;;;;;;;;;4.00;4.00;;;;;26.87;61.66;101277.16;109985;1250;20405;-78
2023/08/20 09:24:58;;;;;;;;;3.00;3.00;;;;;26.89;61.70;101277.48;109999;1250;21592;-78
2023/08/20 09:27:24;;;;;;;;;3.67;3.67;;;;;26.88;61.76;101271.32;110001;1251;23106;-78
2023/08/20 09:29:50;;;;;;;;;5.00;4.00;;;;;26.80;61.87;101275.23;110026;1266;19767;-81
2023/08/20 09:32:16;;;;;;;;;2.50;2.50;;;;;26.73;62.08;101270.28;109997;1250;21482;-79
2023/08/20 09:34:42;;;;;;;;;3.00;3.00;;;;;26.77;62.00;101271.11;110016;1250;19599;-79
2023/08/20 09:37:08;;;;;;;;;3.00;3.00;;;;;26.76;62.10;101269.59;110002;1251;20927;-80
2023/08/20 09:39:34;;;;;;;;;3.00;3.00;;;;;26.74;62.00;101271.98;110007;1265;22165;-78
2023/08/20 09:42:00;;;;;;;;;2.50;2.50;;;;;26.77;62.09;101270.98;109999;1251;23157;-79
2023/08/20 09:44:26;;;;;;;;;3.67;3.00;;;;;26.78;62.12;101269.83;110045;1250;20784;-78
2023/08/20 09:46:52;;;;;;;;;3.00;3.00;;;;;26.73;62.07;101271.99;109994;1266;23390;-81
2023/08/20 09:49:18;;;;;;;;;3.50;3.00;;;;;26.71;62.03;101274.50;109976;1265;19212;-81
2023/08/20 09:51:44;;;;;;;;;3.00;3.00;;;;;26.76;62.17;101276.40;110023;1250;20801;-78
2023/08/20 09:54:10;;;;;;;;;2.00;2.00;;;;;26.75;62.07;101276.20;110025;1251;21646;-80
2023/08/20 09:56:36;;;;;;;;;3.00;3.00;;;;;26.76;61.92;101279.36;110006;1266;19617;-79
2023/08/20 09:59:02;;;;;;;;;3.00;3.00;;;;;26.73;61.79;101276.77;109981;1266;23073;-77
2023/08/20 10:01:28;;;;;;;;;2.50;2.50;;;;;26.78;61.82;101273.45;109996;1265;22453;-77
2023/08/20 10:03:54;;;;;;;;;3.00;2.33;;;;;26.75;61.71;101274.27;109982;1265;19355;-77
2023/08/20 10:06:20;;;;;;;;;3.00;3.00;;;;;26.74;61.87;101275.83;109963;1250;22270;-78
2023/08/20 10:08:46;;;;;;;;;3.00;3.00;;;;;26.77;61.73;101274.35;109982;1260;21408;-78
2023/08/20 10:11:12;;;;;;;;;2.00;2.00;;;;;26.76;61.96;101271.77;109989;1266;19168;-79
2023/08/20 10:13:38;;;;;;;;;2.50;2.50;;;;;26.74;61.87;101276.59;110019;1266;22252;-78
2023/08/20 10:16:05;;;;;;;;;3.00;3.00;;;;;26.75;61.86;101273.55;109986;1258;20461;-78
2023/08/20 10:18:31;;;;;;;;;2.00;2.00;;;;;26.75;61.75;101274.39;109972;1250;19190;-79
2023/08/20 10:20:57;;;;;;;;;2.00;2.00;;;;;26.73;61.82;101273.20;109968;1250;20867;-77
2023/08/20 10:23:23;;;;;;;;;3.00;3.00;;;;;26.74;61.91;101275.55;109959;1250;20893;-81
2023/08/20 10:25:49;;;;;;;;;2.00;2.00;;;;;26.75;61.86;101270.27;109972;1251;20818;-77
2023/08/20 10:28:15;;;;;;;;;1.00;1.00;;;;;26.75;62.11;101267.89;109939;1266;23157;-74
2023/08/20 10:30:41;;;;;;;;;2.00;2.00;;;;;26.74;62.06;101267.02;109965;1266;20150;-80
2023/08/20 10:33:07;;;;;;;;;2.00;2.00;;;;;26.77;61.91;101261.60;109999;1266;19096;-81
2023/08/20 10:35:33;;;;;;;;;2.00;2.00;;;;;26.77;62.01;101263.64;110007;1250;22023;-81
2023/08/20 10:37:59;;;;;;;;;2.00;2.00;;;;;26.75;62.12;101261.46;110003;1266;20200;-79
2023/08/20 10:40:25;;;;;;;;;2.00;2.00;;;;;26.75;62.10;101254.54;110032;1250;19732;-80
2023/08/20 10:42:51;;;;;;;;;2.00;2.00;;;;;26.76;62.10;101255.41;109984;1260;19611;-77
2023/08/20 10:45:17;;;;;;;;;2.00;2.00;;;;;26.80;61.96;101256.28;109931;1251;21522;-77
2023/08/20 10:47:43;;;;;;;;;2.00;2.00;;;;;26.82;61.86;101253.38;109973;1265;23496;-79
2023/08/20 10:50:10;;;;;;;;;2.00;2.00;;;;;26.82;61.83;101254.61;109957;1251;19372;-78
2023/08/20 10:52:36;;;;;;;;;2.00;2.00;;;;;26.81;61.95;101252.96;110004;1250;22825;-78
2023/08/20 10:55:03;;;;;;;;;2.00;2.00;;;;;26.83;61.83;101254.97;110009;1266;19519;-78
2023/08/20 10:57:29;;;;;;;;;2.00;2.00;;;;;26.79;61.98;101252.38;109951;1265;19480;-79
2023/08/20 10:59:55;;;;;;;;;1.00;1.00;;;;;26.82;61.80;101255.20;109937;1250;21341;-77
2023/08/20 11:02:21;;;;;;;;;2.00;2.00;;;;;26.81;61.77;101250.33;109967;1251;19284;-79